Time;durP1;ratioP1;P1;durP2;ratioP2;P2;SDS_P1;SDS_P2;PMS_P1;PMS_P2;Temp;Humidity;BMP_temperature;BMP_pressure;BME280_temperature;BME280_humidity;BME280_pressure;Samples;Min_cycle;Max_cycle;Signal;HPM_P1;HPM_P2
2022/11/30 00:01:11;;;;;;;715.10;642.70;;;6.70;99.90;;;;;;5007162;28;20461;-81
2022/11/30 00:03:38;;;;;;;714.47;641.07;;;6.70;99.90;;;;;;5007156;28;20504;-81
2022/11/30 00:06:05;;;;;;;711.40;638.07;;;6.70;99.90;;;;;;5007382;28;20452;-82
2022/11/30 00:08:32;;;;;;;700.77;627.70;;;6.80;99.90;;;;;;5006882;28;20501;-82
2022/11/30 00:10:59;;;;;;;701.80;628.10;;;6.70;99.90;;;;;;5006226;28;20480;-84
2022/11/30 00:13:25;;;;;;;695.93;622.10;;;6.80;99.90;;;;;;5006009;28;20460;-81
2022/11/30 00:15:52;;;;;;;701.40;625.23;;;6.80;99.90;;;;;;5006874;28;20458;-81
2022/11/30 00:18:20;;;;;;;707.13;633.47;;;6.80;99.90;;;;;;5004864;28;20482;-82
2022/11/30 00:20:47;;;;;;;696.20;623.30;;;6.90;99.90;;;;;;5005749;28;20454;-81
2022/11/30 00:23:13;;;;;;;712.77;635.50;;;6.90;99.90;;;;;;5005666;28;20458;-82
2022/11/30 00:25:40;;;;;;;720.87;647.00;;;6.80;99.90;;;;;;5006015;28;20970;-81
2022/11/30 00:28:07;;;;;;;720.60;642.83;;;6.80;99.90;;;;;;5004314;28;20489;-82
2022/11/30 00:30:34;;;;;;;706.33;631.23;;;6.80;99.90;;;;;;5005930;28;20939;-84
2022/11/30 00:33:00;;;;;;;717.63;632.33;;;6.80;99.90;;;;;;5005229;28;20450;-83
2022/11/30 00:35:30;;;;;;;714.83;636.33;;;6.80;99.90;;;;;;5005280;28;20569;-83
2022/11/30 00:37:57;;;;;;;718.37;639.50;;;6.80;99.90;;;;;;5005226;28;20470;-83
2022/11/30 00:40:24;;;;;;;713.40;634.13;;;6.80;99.90;;;;;;5005232;28;20460;-86
2022/11/30 00:42:51;;;;;;;734.73;651.50;;;6.80;99.90;;;;;;5004732;28;20474;-83
2022/11/30 00:45:17;;;;;;;726.30;647.47;;;6.90;99.90;;;;;;5005472;28;20556;-83
2022/11/30 00:47:44;;;;;;;722.27;643.03;;;6.80;99.90;;;;;;5004593;28;20474;-86
2022/11/30 00:50:11;;;;;;;746.27;638.07;;;6.90;99.90;;;;;;5004257;28;20454;-85
2022/11/30 00:52:39;;;;;;;770.57;646.60;;;6.90;99.90;;;;;;5004226;28;20458;-83
2022/11/30 00:55:07;;;;;;;755.47;640.70;;;6.90;99.90;;;;;;5004477;28;20454;-82
2022/11/30 00:57:34;;;;;;;737.13;647.00;;;6.80;99.90;;;;;;5004456;28;20481;-84
2022/11/30 01:00:01;;;;;;;761.87;629.13;;;6.90;99.90;;;;;;5004350;28;20450;-85
2022/11/30 01:02:28;;;;;;;807.07;644.60;;;6.90;99.90;;;;;;5004368;28;20465;-83
2022/11/30 01:04:54;;;;;;;766.23;634.97;;;6.80;99.90;;;;;;5004073;28;20994;-83
2022/11/30 01:07:21;;;;;;;781.47;644.93;;;6.90;99.90;;;;;;5004452;28;20474;-82
2022/11/30 01:09:49;;;;;;;822.40;651.23;;;7.00;99.90;;;;;;5004629;28;20458;-84
2022/11/30 01:12:16;;;;;;;795.20;649.23;;;6.90;99.90;;;;;;5003907;28;20454;-85
2022/11/30 01:14:42;;;;;;;793.87;670.03;;;6.90;99.90;;;;;;5003982;28;20446;-82
2022/11/30 01:17:09;;;;;;;828.87;663.00;;;7.00;99.90;;;;;;5003922;28;20478;-82
2022/11/30 01:19:36;;;;;;;791.00;665.57;;;6.90;99.90;;;;;;5004250;28;20450;-82
2022/11/30 01:22:02;;;;;;;787.60;637.73;;;7.00;99.90;;;;;;5002971;28;20462;-83
2022/11/30 01:24:29;;;;;;;792.83;664.37;;;6.90;99.90;;;;;;5003192;28;20485;-82
2022/11/30 01:26:57;;;;;;;787.63;648.60;;;6.90;99.90;;;;;;5003828;28;20482;-82
2022/11/30 01:29:24;;;;;;;768.87;645.60;;;6.90;99.90;;;;;;5003127;28;20488;-82
2022/11/30 01:31:51;;;;;;;789.67;639.43;;;6.80;99.90;;;;;;5002231;28;20457;-83
2022/11/30 01:34:17;;;;;;;756.10;635.50;;;7.00;99.90;;;;;;5001287;28;20516;-82
2022/11/30 01:36:44;;;;;;;750.73;658.13;;;6.90;99.90;;;;;;5000971;28;20481;-82
2022/11/30 01:39:11;;;;;;;745.33;659.33;;;6.90;99.90;;;;;;5001496;28;20457;-85
2022/11/30 01:41:38;;;;;;;757.50;659.13;;;7.00;99.90;;;;;;4999741;28;20458;-83
2022/11/30 01:44:49;;;;;;;744.73;656.13;;;7.00;99.90;;;;;;4999974;28;20478;-83
2022/11/30 01:47:16;;;;;;;777.93;695.57;;;6.80;99.90;;;;;;4999999;28;20504;-85
2022/11/30 01:49:47;;;;;;;752.13;649.00;;;7.00;99.90;;;;;;4999000;28;20458;-82
2022/11/30 01:52:17;;;;;;;713.63;634.53;;;6.90;99.90;;;;;;4999856;28;20637;-82
2022/11/30 01:54:47;;;;;;;717.67;634.37;;;7.00;99.90;;;;;;4999975;28;20450;-83
2022/11/30 01:57:18;;;;;;;713.70;628.00;;;7.00;99.90;;;;;;4999949;28;21060;-86
2022/11/30 01:59:48;;;;;;;733.43;639.90;;;7.00;99.90;;;;;;4999957;28;20481;-83
2022/11/30 02:02:15;;;;;;;751.80;633.57;;;7.00;99.90;;;;;;4999497;28;20457;-83
2022/11/30 02:04:42;;;;;;;730.60;650.57;;;7.00;99.90;;;;;;4999516;28;20477;-82
2022/11/30 02:07:09;;;;;;;735.80;655.30;;;7.00;99.90;;;;;;4999958;28;20469;-85
2022/11/30 02:09:41;;;;;;;738.47;647.20;;;7.00;99.90;;;;;;4999906;28;20454;-83
2022/11/30 02:12:13;;;;;;;748.07;644.90;;;6.90;99.90;;;;;;4999222;28;20454;-83
2022/11/30 02:14:46;;;;;;;764.60;651.20;;;7.10;99.90;;;;;;4999649;28;20453;-83
2022/11/30 02:17:25;;;;;;;766.93;653.60;;;7.10;99.90;;;;;;5000074;28;20474;-83
2022/11/30 02:20:34;;;;;;;759.60;667.10;;;7.00;99.90;;;;;;4999574;28;20461;-84
2022/11/30 02:23:38;;;;;;;792.40;663.00;;;7.10;99.90;;;;;;4999489;28;20453;-83
2022/11/30 02:26:18;;;;;;;747.40;652.53;;;7.00;99.90;;;;;;4952463;28;20483;-83
2022/11/30 02:29:10;;;;;;;822.30;663.90;;;7.00;99.90;;;;;;4999438;28;20497;-83
2022/11/30 02:31:43;;;;;;;823.00;637.87;;;7.10;99.90;;;;;;4998968;28;20454;-82
2022/11/30 02:34:11;;;;;;;852.60;647.27;;;7.00;99.90;;;;;;5002320;28;20458;-82
2022/11/30 02:36:38;;;;;;;858.03;644.53;;;7.00;99.90;;;;;;5003157;28;20454;-84
2022/11/30 02:39:05;;;;;;;805.00;640.10;;;7.00;99.90;;;;;;5003052;28;20468;-82
2022/11/30 02:41:36;;;;;;;822.30;644.00;;;7.10;99.90;;;;;;5002502;28;20458;-83
2022/11/30 02:44:05;;;;;;;892.87;641.93;;;7.10;99.90;;;;;;5002810;28;20477;-83
2022/11/30 02:46:40;;;;;;;876.43;657.10;;;7.00;99.90;;;;;;5002978;28;20454;-83
2022/11/30 02:49:13;;;;;;;933.90;661.50;;;7.00;99.90;;;;;;5002292;28;20839;-83
2022/11/30 02:51:42;;;;;;;925.37;646.93;;;7.10;99.90;;;;;;5002560;28;20454;-82
2022/11/30 02:54:09;;;;;;;929.27;649.20;;;7.10;99.90;;;;;;5003093;28;20454;-83
2022/11/30 02:56:36;;;;;;;909.07;655.97;;;7.00;99.90;;;;;;5002546;28;20464;-83
2022/11/30 02:59:04;;;;;;;909.63;666.27;;;7.10;99.90;;;;;;5002119;28;20461;-83
2022/11/30 03:01:31;;;;;;;1009.20;690.93;;;7.10;99.90;;;;;;5002425;28;20458;-83
2022/11/30 03:03:58;;;;;;;991.33;678.30;;;7.10;99.90;;;;;;5001937;28;20833;-84
2022/11/30 03:06:24;;;;;;;977.67;682.13;;;7.10;99.90;;;;;;5002572;28;20461;-83
2022/11/30 03:08:51;;;;;;;958.10;689.77;;;7.10;99.90;;;;;;5002837;28;20456;-83
2022/11/30 03:11:18;;;;;;;955.77;694.03;;;7.10;99.90;;;;;;5001585;28;20457;-84
2022/11/30 03:13:44;;;;;;;1052.17;680.13;;;7.10;99.90;;;;;;5002667;28;20458;-83
2022/11/30 03:16:13;;;;;;;1060.60;686.53;;;7.10;99.90;;;;;;5002385;28;20450;-83
2022/11/30 03:18:40;;;;;;;1120.37;689.33;;;7.10;99.90;;;;;;5002473;28;20483;-83
2022/11/30 03:21:09;;;;;;;1060.80;690.63;;;7.10;99.90;;;;;;5002068;28;20456;-83
2022/11/30 03:23:35;;;;;;;961.37;686.10;;;7.10;99.90;;;;;;5001707;28;20454;-83
2022/11/30 03:26:03;;;;;;;1052.10;692.17;;;7.10;99.90;;;;;;5002674;28;20478;-83
2022/11/30 03:28:30;;;;;;;1049.17;684.57;;;7.00;99.90;;;;;;5002465;28;20469;-83
2022/11/30 03:30:57;;;;;;;1124.57;693.00;;;7.10;99.90;;;;;;5001772;28;20454;-83
2022/11/30 03:33:25;;;;;;;1043.93;705.30;;;7.10;99.90;;;;;;5002903;28;20477;-84
2022/11/30 03:36:00;;;;;;;1068.70;724.17;;;7.10;99.90;;;;;;5002396;28;20450;-83
2022/11/30 03:38:27;;;;;;;1071.03;728.50;;;7.10;99.90;;;;;;5001540;28;20470;-83
2022/11/30 03:41:00;;;;;;;1125.00;710.97;;;7.10;99.90;;;;;;5001929;28;20799;-86
2022/11/30 03:43:27;;;;;;;1038.53;721.33;;;7.10;99.90;;;;;;5002254;28;20500;-83
2022/11/30 03:45:53;;;;;;;1042.27;725.37;;;7.10;99.90;;;;;;5001714;28;20497;-83
2022/11/30 03:48:20;;;;;;;966.63;743.90;;;7.10;99.90;;;;;;5001588;28;20482;-85
2022/11/30 03:50:49;;;;;;;1003.27;746.90;;;7.10;99.90;;;;;;5001653;28;20549;-83
2022/11/30 03:53:16;;;;;;;979.03;735.63;;;7.10;99.90;;;;;;5002435;28;20485;-82
2022/11/30 03:55:42;;;;;;;865.73;724.23;;;7.10;99.90;;;;;;5003144;28;20450;-85
2022/11/30 03:58:09;;;;;;;820.53;730.17;;;7.10;99.90;;;;;;5002165;28;20489;-83
2022/11/30 04:00:36;;;;;;;814.73;727.83;;;7.10;99.90;;;;;;5002590;28;20454;-82
2022/11/30 04:03:03;;;;;;;789.23;703.57;;;7.10;99.90;;;;;;5003416;28;20461;-84
2022/11/30 04:05:30;;;;;;;800.00;712.93;;;7.10;99.90;;;;;;5002028;28;20474;-83
2022/11/30 04:07:59;;;;;;;784.97;701.47;;;7.10;99.90;;;;;;5003049;28;20995;-83
2022/11/30 04:10:25;;;;;;;782.77;697.43;;;7.10;99.90;;;;;;5004044;28;20458;-87
2022/11/30 04:12:52;;;;;;;825.53;743.50;;;7.10;99.90;;;;;;5003963;28;20454;-84
2022/11/30 04:15:19;;;;;;;817.73;736.27;;;7.00;99.90;;;;;;5002457;28;20831;-83
2022/11/30 04:17:45;;;;;;;814.17;732.33;;;7.00;99.90;;;;;;5001844;28;20481;-86
2022/11/30 04:20:12;;;;;;;807.10;726.60;;;7.00;99.90;;;;;;5000973;28;20450;-81
2022/11/30 04:22:54;;;;;;;830.67;747.53;;;7.00;99.90;;;;;;5000378;28;20806;-83
2022/11/30 04:25:22;;;;;;;816.93;734.13;;;7.00;99.90;;;;;;4996657;28;20466;-81
2022/11/30 04:27:51;;;;;;;791.90;715.40;;;7.00;99.90;;;;;;4997378;28;20484;-84
2022/11/30 04:30:18;;;;;;;808.60;732.03;;;6.90;99.90;;;;;;5001578;28;20464;-83
2022/11/30 04:32:44;;;;;;;818.47;744.47;;;6.90;99.90;;;;;;5001623;28;21820;-84
2022/11/30 04:35:11;;;;;;;832.33;756.57;;;6.90;99.90;;;;;;5000277;28;20550;-84
2022/11/30 04:37:38;;;;;;;766.57;694.23;;;6.90;99.90;;;;;;4983179;28;20470;-83
2022/11/30 04:40:06;;;;;;;776.27;701.97;;;6.90;99.90;;;;;;4997332;28;20457;-86
2022/11/30 04:42:34;;;;;;;749.53;679.63;;;6.90;99.90;;;;;;5002214;28;20465;-85
2022/11/30 04:45:01;;;;;;;764.70;690.80;;;6.80;99.90;;;;;;5002294;28;20481;-85
2022/11/30 04:47:28;;;;;;;770.80;696.77;;;6.90;99.90;;;;;;5002450;28;20477;-84
2022/11/30 04:49:54;;;;;;;756.20;684.60;;;6.90;99.90;;;;;;5001958;28;20996;-84
2022/11/30 04:52:21;;;;;;;740.87;672.87;;;6.90;99.90;;;;;;5003498;28;20454;-87
2022/11/30 04:54:48;;;;;;;754.00;684.60;;;6.90;99.90;;;;;;4999661;28;20450;-83
2022/11/30 04:57:15;;;;;;;769.90;700.10;;;6.80;99.90;;;;;;5002224;28;21030;-83
2022/11/30 04:59:43;;;;;;;732.23;670.00;;;6.80;99.90;;;;;;5001454;28;20461;-84
2022/11/30 05:02:10;;;;;;;734.63;672.77;;;6.80;99.90;;;;;;5002451;28;20461;-83
2022/11/30 05:04:36;;;;;;;695.80;636.50;;;6.90;99.90;;;;;;5003562;28;20450;-85
2022/11/30 05:07:03;;;;;;;700.00;642.40;;;6.80;99.90;;;;;;5003039;28;20481;-84
2022/11/30 05:09:30;;;;;;;707.77;647.40;;;6.80;99.90;;;;;;5003103;28;20465;-83
2022/11/30 05:11:57;;;;;;;693.87;635.87;;;6.70;99.90;;;;;;5002105;28;20465;-84
2022/11/30 05:14:24;;;;;;;677.53;624.47;;;6.80;99.90;;;;;;5003050;28;20466;-82
2022/11/30 05:16:52;;;;;;;701.60;645.07;;;6.70;99.90;;;;;;5003047;28;21005;-86
2022/11/30 05:19:18;;;;;;;666.40;611.30;;;6.70;99.90;;;;;;5003645;28;20457;-83
2022/11/30 05:21:46;;;;;;;659.70;606.70;;;6.70;99.90;;;;;;5002994;28;20450;-84
2022/11/30 05:24:13;;;;;;;650.07;597.80;;;6.70;99.90;;;;;;5004145;28;20472;-83
2022/11/30 05:26:40;;;;;;;653.10;600.57;;;6.70;99.90;;;;;;5003233;28;20513;-82
2022/11/30 05:29:07;;;;;;;637.70;586.63;;;6.70;99.90;;;;;;5003616;28;20525;-84
2022/11/30 05:31:34;;;;;;;664.30;610.47;;;6.70;99.90;;;;;;5003099;28;20458;-85
2022/11/30 05:34:02;;;;;;;661.33;606.97;;;6.80;99.90;;;;;;5002856;28;20480;-81
2022/11/30 05:36:29;;;;;;;678.77;624.80;;;6.70;99.90;;;;;;5003779;28;20489;-83
2022/11/30 05:38:56;;;;;;;667.23;614.07;;;6.60;99.90;;;;;;5002596;28;20897;-82
2022/11/30 05:41:22;;;;;;;676.03;623.20;;;6.60;99.90;;;;;;5001426;28;20580;-85
2022/11/30 05:43:49;;;;;;;664.37;612.40;;;6.60;99.90;;;;;;5002059;28;20958;-84
2022/11/30 05:46:19;;;;;;;660.63;608.07;;;6.60;99.90;;;;;;5001165;28;21021;-83
2022/11/30 05:48:46;;;;;;;652.20;602.67;;;6.70;99.90;;;;;;5002717;28;20955;-84
2022/11/30 05:51:16;;;;;;;643.07;593.20;;;6.70;99.90;;;;;;5002378;28;20540;-85
2022/11/30 05:53:44;;;;;;;650.80;600.27;;;6.60;99.90;;;;;;5003512;28;20522;-84
2022/11/30 05:56:13;;;;;;;631.50;583.30;;;6.60;99.90;;;;;;5003112;28;20457;-86
2022/11/30 05:58:48;;;;;;;641.63;593.50;;;6.60;99.90;;;;;;5003176;28;20486;-84
2022/11/30 06:01:19;;;;;;;617.17;570.03;;;6.50;99.90;;;;;;5003185;28;20516;-84
2022/11/30 06:03:48;;;;;;;621.80;574.50;;;6.60;99.90;;;;;;5003758;28;20450;-84
2022/11/30 06:06:16;;;;;;;615.87;568.60;;;6.50;99.90;;;;;;5002793;28;20490;-83
2022/11/30 06:08:43;;;;;;;625.90;579.40;;;6.50;99.90;;;;;;5004725;28;20502;-84
2022/11/30 06:11:11;;;;;;;618.57;571.80;;;6.70;99.90;;;;;;5007159;28;20450;-85
2022/11/30 06:13:48;;;;;;;622.47;573.57;;;6.60;99.90;;;;;;5008159;28;20521;-87
2022/11/30 06:16:15;;;;;;;625.50;577.40;;;6.60;99.90;;;;;;5007245;28;20511;-84
2022/11/30 06:18:41;;;;;;;623.00;575.27;;;6.60;99.90;;;;;;5006818;28;20476;-82
2022/11/30 06:21:10;;;;;;;614.60;567.13;;;6.50;99.90;;;;;;5006842;28;20544;-84
2022/11/30 06:23:38;;;;;;;612.13;564.27;;;6.50;99.90;;;;;;5007302;28;20450;-83
2022/11/30 06:26:06;;;;;;;609.67;562.17;;;6.50;99.90;;;;;;5007067;28;20480;-84
2022/11/30 06:28:34;;;;;;;604.03;555.73;;;6.40;99.90;;;;;;5006672;28;20474;-84
2022/11/30 06:31:05;;;;;;;620.50;570.30;;;6.40;99.90;;;;;;5008343;28;20553;-84
2022/11/30 06:33:32;;;;;;;623.13;572.20;;;6.40;99.90;;;;;;5007707;28;20448;-83
2022/11/30 06:35:59;;;;;;;632.27;580.97;;;6.20;99.90;;;;;;5003953;28;20967;-83
2022/11/30 06:38:45;;;;;;;633.13;580.53;;;6.20;99.90;;;;;;5004294;28;20529;-83
2022/11/30 06:41:12;;;;;;;637.43;584.67;;;6.10;99.90;;;;;;5004384;28;20454;-83
2022/11/30 06:43:39;;;;;;;646.27;593.13;;;6.10;99.90;;;;;;5005222;28;20454;-83
2022/11/30 06:46:07;;;;;;;665.47;610.90;;;6.00;99.90;;;;;;5005938;28;20521;-83
2022/11/30 06:48:34;;;;;;;674.60;618.60;;;6.00;99.90;;;;;;5005728;28;20474;-83
2022/11/30 06:51:06;;;;;;;679.73;623.80;;;6.00;99.90;;;;;;5004295;28;20966;-83
2022/11/30 06:53:32;;;;;;;678.23;622.47;;;5.80;99.90;;;;;;5001837;28;20484;-83
2022/11/30 06:56:04;;;;;;;677.80;623.73;;;5.90;99.90;;;;;;5006131;28;20454;-83
2022/11/30 06:58:31;;;;;;;676.07;622.50;;;5.80;99.90;;;;;;5004247;28;20485;-82
2022/11/30 07:00:58;;;;;;;674.93;620.83;;;5.60;99.90;;;;;;5006175;28;20485;-85
2022/11/30 07:03:25;;;;;;;667.93;614.57;;;5.70;99.90;;;;;;5004698;28;20831;-83
2022/11/30 07:05:53;;;;;;;670.33;618.27;;;5.70;99.90;;;;;;5003589;28;21081;-81
2022/11/30 07:08:19;;;;;;;684.77;631.17;;;5.60;99.90;;;;;;5003769;28;20502;-83
2022/11/30 07:10:49;;;;;;;687.77;632.07;;;5.50;99.90;;;;;;5004361;28;20461;-83
2022/11/30 07:13:19;;;;;;;686.00;629.83;;;5.50;99.90;;;;;;5004747;28;20469;-83
2022/11/30 07:15:46;;;;;;;690.57;634.77;;;5.50;99.90;;;;;;5005951;28;20470;-83
2022/11/30 07:18:13;;;;;;;695.17;637.97;;;5.40;99.90;;;;;;5003270;28;20557;-81
2022/11/30 07:20:40;;;;;;;704.40;645.87;;;5.30;99.90;;;;;;5002938;28;20454;-83
2022/11/30 07:26:08;;;;;;;746.50;682.73;;;5.10;99.90;;;;;;5009344;28;20600;-84
2022/11/30 07:28:38;;;;;;;746.27;682.13;;;5.10;99.90;;;;;;5006749;28;20904;-82
2022/11/30 07:31:14;;;;;;;734.23;669.90;;;5.10;99.90;;;;;;5004956;28;20454;-82
2022/11/30 07:33:41;;;;;;;730.43;664.90;;;5.10;99.90;;;;;;5004389;28;20457;-82
2022/11/30 07:36:11;;;;;;;748.47;681.33;;;5.00;99.90;;;;;;5004970;28;20450;-83
2022/11/30 07:38:38;;;;;;;734.73;665.00;;;5.10;99.90;;;;;;5005669;28;20474;-82
2022/11/30 07:41:06;;;;;;;739.60;669.40;;;5.20;99.90;;;;;;5006296;28;20454;-82
2022/11/30 07:43:33;;;;;;;748.63;677.47;;;5.00;99.90;;;;;;5005827;28;21033;-81
2022/11/30 07:46:02;;;;;;;739.50;669.70;;;5.10;99.90;;;;;;5002608;28;20476;-83
2022/11/30 07:48:29;;;;;;;759.07;685.17;;;5.10;99.90;;;;;;5002134;28;20527;-84
2022/11/30 07:51:02;;;;;;;745.17;670.93;;;5.20;99.90;;;;;;5002245;28;20454;-83
2022/11/30 07:53:30;;;;;;;748.10;672.70;;;5.40;99.90;;;;;;5003531;28;20448;-83
2022/11/30 07:56:04;;;;;;;744.27;667.30;;;5.30;99.90;;;;;;5003088;28;20454;-83
2022/11/30 08:15:33;;;;;;;732.50;657.20;;;5.90;99.90;;;;;;4814084;29;20475;-85
2022/11/30 08:25:29;;;;;;;;;;;;;;;;;;;;;
2022/11/30 08:46:00;;;;;;;;;;;;;;;;;;;;;
2022/11/30 08:59:08;;;;;;;;;;;;;;;;;;;;;
2022/11/30 09:38:57;;;;;;;587.13;541.03;;;6.40;99.90;;;;;;4888988;28;20466;-87
2022/11/30 09:42:37;;;;;;;;;;;;;;;;;;;;;
2022/11/30 09:49:16;;;;;;;;;;;;;;;;;;;;;
2022/11/30 10:02:01;;;;;;;551.33;512.83;;;6.50;99.90;;;;;;4993692;28;20491;-85
2022/11/30 10:04:30;;;;;;;537.53;501.83;;;6.30;99.90;;;;;;4954453;28;20979;-85
2022/11/30 10:07:23;;;;;;;544.07;505.07;;;6.40;99.90;;;;;;4994729;28;20489;-85
2022/11/30 10:10:13;;;;;;;557.43;517.60;;;6.40;99.90;;;;;;4995036;28;20450;-86
2022/11/30 10:13:39;;;;;;;534.33;498.97;;;6.40;99.90;;;;;;4975817;28;21059;-85
2022/11/30 10:16:59;;;;;;;525.97;491.10;;;6.40;99.90;;;;;;4897981;29;20475;-85
2022/11/30 10:20:15;;;;;;;505.10;473.70;;;6.40;99.90;;;;;;4963320;28;20458;-84
2022/11/30 10:23:12;;;;;;;510.93;476.63;;;6.40;99.90;;;;;;4897498;29;20467;-84
2022/11/30 10:35:50;;;;;;;512.87;478.13;;;6.40;99.90;;;;;;4976469;28;20447;-84
2022/11/30 10:45:36;;;;;;;507.03;472.57;;;6.50;99.90;;;;;;4901314;28;20455;-84
2022/11/30 10:48:45;;;;;;;;;;;;;;;;;;;;;
2022/11/30 10:51:26;;;;;;;502.17;468.33;;;6.50;99.90;;;;;;4978114;28;20963;-84
2022/11/30 10:54:28;;;;;;;501.27;468.37;;;6.60;99.90;;;;;;4979222;28;20509;-85
2022/11/30 10:57:04;;;;;;;494.20;462.33;;;6.50;99.90;;;;;;5023656;23;20513;-82
2022/11/30 10:59:57;;;;;;;515.90;482.10;;;6.50;99.90;;;;;;4999022;28;20816;-84
2022/11/30 11:02:53;;;;;;;518.10;483.63;;;6.60;99.90;;;;;;4998537;28;20472;-84
2022/11/30 11:05:45;;;;;;;508.17;474.33;;;6.50;99.90;;;;;;5000148;28;20458;-84
2022/11/30 11:15:22;;;;;;;;;;;;;;;;;;;;;
2022/11/30 11:18:53;;;;;;;;;;;;;;;;;;;;;
2022/11/30 11:21:30;;;;;;;505.87;473.10;;;6.60;99.90;;;;;;4986854;28;20454;-84
2022/11/30 11:25:00;;;;;;;;;;;;;;;;;;;;;
2022/11/30 11:38:17;;;;;;;497.87;465.60;;;6.70;99.90;;;;;;4886564;29;20570;-83
2022/11/30 11:40:59;;;;;;;484.73;455.80;;;6.70;99.90;;;;;;4988662;28;20446;-83
2022/11/30 11:43:28;;;;;;;516.33;482.60;;;6.70;99.90;;;;;;4997522;28;20513;-83
2022/11/30 11:46:00;;;;;;;485.30;456.50;;;6.60;99.90;;;;;;5007180;28;20552;-84
2022/11/30 11:54:31;;;;;;;491.70;461.87;;;6.70;99.90;;;;;;4974982;28;20462;-83
2022/11/30 11:57:27;;;;;;;502.70;470.97;;;6.70;99.90;;;;;;5006081;28;20474;-83
2022/11/30 12:00:19;;;;;;;505.00;473.17;;;6.60;99.90;;;;;;4945581;29;20488;-84
2022/11/30 12:02:58;;;;;;;513.80;480.50;;;6.70;99.90;;;;;;4911203;29;20564;-84
2022/11/30 12:05:30;;;;;;;525.20;490.97;;;6.70;99.90;;;;;;4945040;29;20464;-84
2022/11/30 12:08:07;;;;;;;507.27;473.93;;;6.70;99.90;;;;;;4944102;29;20488;-83
2022/11/30 12:10:43;;;;;;;498.50;466.30;;;6.70;99.90;;;;;;4971130;28;20460;-81
2022/11/30 12:13:15;;;;;;;480.60;450.90;;;6.70;99.90;;;;;;5004807;28;20521;-81
2022/11/30 12:15:59;;;;;;;502.97;470.57;;;6.70;99.90;;;;;;5003692;28;20947;-81
2022/11/30 12:18:39;;;;;;;509.00;475.90;;;6.70;99.90;;;;;;4983755;28;20482;-81
2022/11/30 12:21:28;;;;;;;490.93;461.10;;;6.70;99.90;;;;;;4986279;28;20526;-82
2022/11/30 12:24:14;;;;;;;518.17;485.00;;;6.60;99.90;;;;;;5002898;28;20537;-80
2022/11/30 12:26:47;;;;;;;500.17;470.43;;;6.80;99.90;;;;;;5000878;28;20458;-81
2022/11/30 12:29:25;;;;;;;525.13;491.13;;;6.70;99.90;;;;;;5000643;28;20454;-80
2022/11/30 12:32:11;;;;;;;514.97;481.93;;;6.80;99.90;;;;;;4981462;28;20458;-80
2022/11/30 12:34:50;;;;;;;504.87;474.63;;;6.80;99.90;;;;;;4991160;28;20457;-80
2022/11/30 12:37:26;;;;;;;514.03;481.23;;;6.70;99.90;;;;;;5002221;28;20470;-81
2022/11/30 12:40:03;;;;;;;510.73;479.60;;;6.80;99.90;;;;;;5002189;28;20823;-80
2022/11/30 12:42:41;;;;;;;489.27;457.53;;;6.80;99.90;;;;;;4981110;28;20463;-80
2022/11/30 12:45:19;;;;;;;493.70;461.43;;;6.80;99.90;;;;;;4989579;28;20464;-81
2022/11/30 12:47:56;;;;;;;467.77;439.07;;;6.80;99.90;;;;;;5000271;28;20492;-81
2022/11/30 12:50:36;;;;;;;480.53;449.50;;;6.80;99.90;;;;;;4999319;28;20450;-80
2022/11/30 12:53:09;;;;;;;485.50;455.77;;;6.80;99.90;;;;;;4999568;28;20450;-79
2022/11/30 12:55:45;;;;;;;476.30;446.93;;;6.90;99.90;;;;;;4998807;28;20461;-80
2022/11/30 12:58:24;;;;;;;510.50;477.00;;;6.90;99.90;;;;;;4998964;28;20492;-80
2022/11/30 13:01:04;;;;;;;511.27;478.47;;;7.00;99.90;;;;;;4998741;28;20934;-80
2022/11/30 13:03:53;;;;;;;498.23;467.40;;;6.90;99.90;;;;;;4998739;28;20552;-80
2022/11/30 13:06:24;;;;;;;504.43;471.60;;;6.90;99.90;;;;;;4998283;28;20458;-81
2022/11/30 13:09:00;;;;;;;507.07;474.97;;;6.90;99.90;;;;;;4999296;28;20849;-80
2022/11/30 13:11:33;;;;;;;508.17;477.23;;;7.00;99.90;;;;;;4999516;28;20456;-80
2022/11/30 13:14:04;;;;;;;527.07;493.40;;;7.00;99.90;;;;;;4998896;28;20454;-81
2022/11/30 13:16:34;;;;;;;525.37;492.37;;;7.00;99.90;;;;;;4992386;28;20472;-80
2022/11/30 13:19:10;;;;;;;514.97;481.57;;;7.10;99.90;;;;;;4992729;28;20479;-80
2022/11/30 13:21:44;;;;;;;504.33;473.00;;;7.10;99.90;;;;;;4990077;28;20450;-81
2022/11/30 13:24:16;;;;;;;505.17;473.93;;;7.10;99.90;;;;;;4994070;28;20835;-81
2022/11/30 13:26:49;;;;;;;483.00;453.20;;;7.20;99.90;;;;;;4997652;28;20457;-81
2022/11/30 13:29:46;;;;;;;505.33;473.60;;;7.00;99.90;;;;;;4993268;28;20481;-80
2022/11/30 13:32:15;;;;;;;540.10;506.23;;;7.10;99.90;;;;;;4996758;28;20488;-80
2022/11/30 13:34:42;;;;;;;526.10;492.20;;;7.10;99.90;;;;;;4996411;28;20464;-81
2022/11/30 13:37:12;;;;;;;514.77;483.80;;;7.10;99.90;;;;;;4997173;28;20489;-81
2022/11/30 13:39:49;;;;;;;503.33;472.90;;;7.10;99.90;;;;;;4997482;28;20456;-81
2022/11/30 13:42:38;;;;;;;531.10;498.80;;;7.10;99.90;;;;;;4996895;28;21436;-81
2022/11/30 13:45:33;;;;;;;516.53;484.53;;;7.10;99.90;;;;;;4997692;28;20457;-81
2022/11/30 13:48:17;;;;;;;528.57;496.37;;;7.00;99.90;;;;;;4996922;28;20516;-81
2022/11/30 13:50:48;;;;;;;522.30;489.87;;;7.10;99.90;;;;;;4996716;28;20554;-81
2022/11/30 13:53:27;;;;;;;515.77;485.83;;;7.10;99.90;;;;;;4996976;28;20458;-81
2022/11/30 13:56:27;;;;;;;514.63;484.37;;;7.00;99.90;;;;;;4996806;28;20458;-80
2022/11/30 13:59:31;;;;;;;525.43;493.23;;;7.00;99.90;;;;;;4996255;28;20474;-80
2022/11/30 14:02:31;;;;;;;525.80;494.27;;;7.00;99.90;;;;;;4985361;28;21478;-81
2022/11/30 14:05:22;;;;;;;509.90;478.87;;;7.00;99.90;;;;;;4996020;28;20547;-81
2022/11/30 14:08:12;;;;;;;484.03;457.40;;;7.10;99.90;;;;;;4997007;28;20497;-80
2022/11/30 14:10:41;;;;;;;494.30;464.60;;;7.00;99.90;;;;;;4997365;28;20458;-81
2022/11/30 14:13:29;;;;;;;480.40;452.60;;;7.00;99.90;;;;;;4996625;28;20500;-81
2022/11/30 14:15:59;;;;;;;479.17;451.60;;;7.00;99.90;;;;;;4996598;28;20490;-81
2022/11/30 14:18:43;;;;;;;472.00;445.43;;;6.90;99.90;;;;;;4995791;28;20470;-81
2022/11/30 14:21:17;;;;;;;496.27;467.33;;;7.00;99.90;;;;;;4996160;28;20469;-81
2022/11/30 14:23:50;;;;;;;465.90;439.03;;;7.00;99.90;;;;;;4996054;28;20450;-81
2022/11/30 14:26:23;;;;;;;499.47;470.27;;;7.10;99.90;;;;;;4996807;28;20839;-81
2022/11/30 14:28:53;;;;;;;500.27;471.77;;;6.90;99.90;;;;;;4992690;28;20513;-80
2022/11/30 14:31:23;;;;;;;497.40;466.63;;;7.00;99.90;;;;;;5001276;28;20446;-81
2022/11/30 14:33:55;;;;;;;479.63;450.23;;;6.90;99.90;;;;;;5000872;28;20465;-79
2022/11/30 14:36:28;;;;;;;464.90;439.10;;;6.90;99.90;;;;;;5001354;28;20485;-81
2022/11/30 14:38:55;;;;;;;480.23;452.33;;;6.90;99.90;;;;;;5000149;28;20473;-80
2022/11/30 14:41:25;;;;;;;485.60;457.03;;;6.90;99.90;;;;;;5000630;28;20458;-80
2022/11/30 14:44:02;;;;;;;458.07;432.50;;;7.00;99.90;;;;;;5000780;28;20452;-80
2022/11/30 14:46:32;;;;;;;468.23;442.47;;;6.90;99.90;;;;;;5001072;28;20550;-80
2022/11/30 14:49:23;;;;;;;486.33;458.13;;;6.90;99.90;;;;;;5002151;28;20478;-82
2022/11/30 14:51:55;;;;;;;471.13;445.60;;;6.90;99.90;;;;;;4975742;28;20500;-79
2022/11/30 14:54:34;;;;;;;483.83;455.93;;;6.90;99.90;;;;;;5001267;28;20528;-81
2022/11/30 14:57:08;;;;;;;469.77;444.27;;;6.90;99.90;;;;;;4996193;28;20441;-81
2022/11/30 14:59:45;;;;;;;483.23;455.17;;;6.90;99.90;;;;;;5000892;28;20951;-80
2022/11/30 15:02:22;;;;;;;498.30;469.50;;;6.90;99.90;;;;;;4995025;28;20835;-80
2022/11/30 15:04:51;;;;;;;515.57;486.70;;;6.90;99.90;;;;;;5001378;28;20450;-80
2022/11/30 15:07:20;;;;;;;525.80;494.60;;;6.80;99.90;;;;;;5002042;28;20474;-81
2022/11/30 15:09:49;;;;;;;530.47;498.50;;;6.80;99.90;;;;;;5001175;28;20474;-80
2022/11/30 15:12:19;;;;;;;534.67;504.37;;;6.80;99.90;;;;;;5000834;28;20449;-80
2022/11/30 15:15:18;;;;;;;542.03;511.07;;;6.90;99.90;;;;;;5001140;28;20492;-80
2022/11/30 15:17:51;;;;;;;539.43;508.60;;;6.80;99.90;;;;;;5000887;28;20470;-80
2022/11/30 15:20:24;;;;;;;527.00;497.10;;;6.80;99.90;;;;;;5001668;28;20899;-80
2022/11/30 15:22:53;;;;;;;541.00;509.90;;;6.80;99.90;;;;;;5001673;28;20468;-81
2022/11/30 15:25:22;;;;;;;556.23;522.90;;;6.80;99.90;;;;;;5001286;28;20469;-80
2022/11/30 15:27:49;;;;;;;549.63;516.63;;;6.90;99.90;;;;;;5000083;28;20478;-80